Urb Palmas Reales, Puerto Rico
Current Conditions -  °F | °C
As of 10:53 AM on Monday 22 Dec 2014 (Local Time) from TJNR Reporting Station
Clear Clear  
Wind Chill: 83°   Ceiling: Unl
Heat Index: 88°   Visibility: 10mi
Dew Point: 71°   Wind: 9mph
Humidity: 67%   Direction: 90°E
Pressure: 30.1"   Gusts: NA
Location:  18.1494°N, 65.8294°W
Report Text: TJNR 221453Z AUTO 09008KT 10SM CLR 28/22 A3010 RMK AO2 SLP191 T02830217 50010
Loading
Personal Weather Stations






























Interactive Weather Map New forecast layout! Learn more

10-Day Weather Forecast

Advertisements
Track Severe Weather on mobile